Time;durP1;ratioP1;P1;durP2;ratioP2;P2;SDS_P1;SDS_P2;PMS_P1;PMS_P2;Temp;Humidity;BMP_temperature;BMP_pressure;BME280_temperature;BME280_humidity;BME280_pressure;Samples;Min_cycle;Max_cycle;Signal;HPM_P1;HPM_P2
2021/09/19 00:00:37;;;;;;;169.70;161.25;;;16.30;99.90;;;;;;5067800;28;20234;-77
2021/09/19 00:03:06;;;;;;;165.35;157.30;;;16.40;99.90;;;;;;5074565;28;20293;-77
2021/09/19 00:05:32;;;;;;;175.93;167.07;;;16.30;99.90;;;;;;5068202;28;20230;-77
2021/09/19 00:07:59;;;;;;;169.90;161.35;;;16.30;99.90;;;;;;5068093;28;20681;-77
2021/09/19 00:10:26;;;;;;;149.73;142.55;;;16.20;99.90;;;;;;5068238;28;20208;-77
2021/09/19 00:12:53;;;;;;;168.32;160.07;;;16.20;99.90;;;;;;5073926;28;20201;-77
2021/09/19 00:15:21;;;;;;;141.65;134.90;;;16.20;99.90;;;;;;5067747;28;20531;-77
2021/09/19 00:17:48;;;;;;;165.75;157.68;;;16.20;99.90;;;;;;5073640;28;20240;-77
2021/09/19 00:20:17;;;;;;;167.50;159.25;;;16.10;99.90;;;;;;5068084;28;20196;-76
2021/09/19 00:22:44;;;;;;;167.52;159.05;;;16.10;99.90;;;;;;5068192;28;20203;-77
2021/09/19 00:25:14;;;;;;;155.18;147.63;;;16.10;99.90;;;;;;5067677;28;20234;-77
2021/09/19 00:27:41;;;;;;;167.10;158.93;;;16.00;99.90;;;;;;5067818;28;20228;-77
2021/09/19 00:30:10;;;;;;;167.57;159.32;;;16.00;99.90;;;;;;5068006;28;20258;-77
2021/09/19 00:32:37;;;;;;;172.77;164.07;;;16.10;99.90;;;;;;5067669;28;20591;-76
2021/09/19 00:35:05;;;;;;;178.15;169.35;;;16.10;99.90;;;;;;5067157;28;20661;-77
2021/09/19 00:37:34;;;;;;;171.90;163.45;;;16.20;99.90;;;;;;5074074;28;20230;-76
2021/09/19 00:40:01;;;;;;;179.07;169.90;;;16.30;99.90;;;;;;5066940;28;20558;-77
2021/09/19 00:42:28;;;;;;;187.10;177.63;;;16.30;99.90;;;;;;5067258;28;20207;-76
2021/09/19 00:44:59;;;;;;;168.55;159.88;;;16.30;99.90;;;;;;5067470;28;20204;-77
2021/09/19 00:47:26;;;;;;;153.07;145.63;;;16.30;99.90;;;;;;5067353;28;20249;-77
2021/09/19 00:49:53;;;;;;;170.43;162.02;;;16.30;99.90;;;;;;5067662;28;20202;-77
2021/09/19 00:52:21;;;;;;;150.35;143.07;;;16.30;99.90;;;;;;5068961;28;20225;-77
2021/09/19 00:54:51;;;;;;;164.02;156.07;;;16.20;99.90;;;;;;5080024;28;20343;-77
2021/09/19 00:57:19;;;;;;;162.45;154.60;;;16.20;99.90;;;;;;5074545;28;20226;-77
2021/09/19 00:59:50;;;;;;;163.98;155.75;;;16.20;99.90;;;;;;5067026;28;20204;-77
2021/09/19 01:02:17;;;;;;;158.38;150.38;;;16.10;99.90;;;;;;5067650;28;20263;-76
2021/09/19 01:04:45;;;;;;;167.25;159.20;;;16.00;99.90;;;;;;5082920;28;20208;-77
2021/09/19 01:07:12;;;;;;;136.27;129.90;;;16.00;99.90;;;;;;5089232;28;20204;-78
2021/09/19 01:09:40;;;;;;;154.65;147.25;;;15.80;99.90;;;;;;5085407;28;20217;-76
2021/09/19 01:12:10;;;;;;;143.85;137.18;;;15.80;99.90;;;;;;5086088;28;20196;-76
2021/09/19 01:14:41;;;;;;;137.45;130.80;;;15.80;99.90;;;;;;5087956;28;20203;-76
2021/09/19 01:17:08;;;;;;;141.15;134.48;;;15.80;99.90;;;;;;5079754;28;20185;-76
2021/09/19 01:19:37;;;;;;;128.30;122.45;;;15.70;99.90;;;;;;5079795;28;20187;-76
2021/09/19 01:22:05;;;;;;;126.75;120.95;;;15.70;99.90;;;;;;5078315;28;20212;-77
2021/09/19 01:24:34;;;;;;;146.55;139.43;;;15.60;99.90;;;;;;5067710;28;20266;-76
2021/09/19 01:27:01;;;;;;;148.15;140.82;;;15.50;99.90;;;;;;5073248;28;20204;-76
2021/09/19 01:29:29;;;;;;;126.97;121.03;;;15.50;99.90;;;;;;5066846;28;20228;-76
2021/09/19 01:31:57;;;;;;;156.38;148.98;;;15.50;99.90;;;;;;5066013;28;20207;-76
2021/09/19 01:34:24;;;;;;;152.55;145.13;;;15.60;99.90;;;;;;5070979;28;20230;-77
2021/09/19 01:36:51;;;;;;;118.25;112.45;;;15.60;99.90;;;;;;5070491;28;20197;-77
2021/09/19 01:39:18;;;;;;;154.88;147.45;;;15.60;99.90;;;;;;5073464;28;20253;-77
2021/09/19 01:41:49;;;;;;;157.13;149.70;;;15.50;99.90;;;;;;5072745;28;20211;-77
2021/09/19 01:44:17;;;;;;;125.97;120.15;;;15.50;99.90;;;;;;5075365;28;20304;-77
2021/09/19 01:46:43;;;;;;;159.48;151.73;;;15.60;99.90;;;;;;5068433;28;20207;-77
2021/09/19 01:49:10;;;;;;;148.57;141.40;;;15.50;99.90;;;;;;5066083;28;20224;-77
2021/09/19 01:51:38;;;;;;;154.75;147.20;;;15.50;99.90;;;;;;5066044;28;20234;-76
2021/09/19 01:54:05;;;;;;;138.45;131.45;;;15.50;99.90;;;;;;5066064;28;20262;-77
2021/09/19 01:56:33;;;;;;;156.65;149.13;;;15.50;99.90;;;;;;5065611;28;20223;-77
2021/09/19 01:59:02;;;;;;;163.40;155.45;;;15.50;99.90;;;;;;5066121;28;20219;-77
2021/09/19 02:01:31;;;;;;;140.27;133.75;;;15.40;99.90;;;;;;5065903;28;20230;-77
2021/09/19 02:03:58;;;;;;;162.95;154.90;;;15.40;99.90;;;;;;5065963;28;20237;-77
2021/09/19 02:06:25;;;;;;;159.65;152.07;;;15.40;99.90;;;;;;5069537;28;20566;-76
2021/09/19 02:08:53;;;;;;;134.68;128.02;;;15.30;99.90;;;;;;5065886;28;20243;-77
2021/09/19 02:11:21;;;;;;;148.48;141.43;;;15.30;99.90;;;;;;5065655;28;20239;-76
2021/09/19 02:13:49;;;;;;;158.30;150.55;;;15.40;99.90;;;;;;5072979;28;20211;-76
2021/09/19 02:16:21;;;;;;;151.85;144.60;;;15.50;99.90;;;;;;5066241;28;20204;-76
2021/09/19 02:18:48;;;;;;;160.77;153.23;;;15.50;99.90;;;;;;5066130;28;20214;-77
2021/09/19 02:21:15;;;;;;;152.75;145.38;;;15.50;99.90;;;;;;5066185;28;20211;-77
2021/09/19 02:23:43;;;;;;;129.88;123.35;;;15.50;99.90;;;;;;5068242;28;20282;-76
2021/09/19 02:26:10;;;;;;;147.18;140.32;;;15.50;99.90;;;;;;5070071;28;20656;-77
2021/09/19 02:28:37;;;;;;;152.05;144.85;;;15.40;99.90;;;;;;5068997;28;20228;-77
2021/09/19 02:31:04;;;;;;;149.93;142.77;;;15.40;99.90;;;;;;5068390;28;20257;-76
2021/09/19 02:33:33;;;;;;;139.27;132.68;;;15.30;99.90;;;;;;5069617;28;20210;-76
2021/09/19 02:36:00;;;;;;;143.77;137.02;;;15.30;99.90;;;;;;5065799;28;20208;-76
2021/09/19 02:38:27;;;;;;;137.10;130.65;;;15.10;99.90;;;;;;5065350;28;20221;-76
2021/09/19 02:40:55;;;;;;;163.82;155.77;;;15.10;99.90;;;;;;5070937;28;20761;-76
2021/09/19 02:43:22;;;;;;;164.88;156.90;;;15.10;99.90;;;;;;5065340;28;20204;-77
2021/09/19 02:45:50;;;;;;;175.93;167.45;;;15.10;99.90;;;;;;5070625;28;20696;-77
2021/09/19 02:48:17;;;;;;;168.18;159.70;;;15.20;99.90;;;;;;5069196;28;20278;-76
2021/09/19 02:50:45;;;;;;;164.77;156.75;;;15.20;99.90;;;;;;5069895;28;20226;-77
2021/09/19 02:53:12;;;;;;;183.23;174.20;;;15.20;99.90;;;;;;5068977;28;20198;-77
2021/09/19 02:55:39;;;;;;;180.02;171.15;;;15.30;99.90;;;;;;5069511;28;20207;-77
2021/09/19 02:58:06;;;;;;;145.13;137.63;;;15.30;99.90;;;;;;5071356;28;20298;-76
2021/09/19 03:00:33;;;;;;;160.98;153.20;;;15.40;99.90;;;;;;5082833;28;20200;-77
2021/09/19 03:03:00;;;;;;;133.68;127.25;;;15.40;99.90;;;;;;5070520;28;20267;-76
2021/09/19 03:05:27;;;;;;;161.95;154.18;;;15.40;99.90;;;;;;5078824;28;20229;-77
2021/09/19 03:07:56;;;;;;;148.73;141.73;;;15.40;99.90;;;;;;5070195;28;20227;-77
2021/09/19 03:10:23;;;;;;;147.77;140.80;;;15.30;99.90;;;;;;5069813;28;20193;-77
2021/09/19 03:12:50;;;;;;;163.60;155.45;;;15.20;99.90;;;;;;5073412;28;20225;-77
2021/09/19 03:15:17;;;;;;;141.77;134.82;;;15.10;99.90;;;;;;5070467;28;20254;-77
2021/09/19 03:17:44;;;;;;;157.48;149.90;;;15.10;99.90;;;;;;5068934;28;20702;-77
2021/09/19 03:20:13;;;;;;;145.93;139.00;;;15.10;99.90;;;;;;5068611;28;20233;-77
2021/09/19 03:22:40;;;;;;;136.15;129.77;;;15.10;99.90;;;;;;5069086;28;20215;-77
2021/09/19 03:25:11;;;;;;;133.35;127.07;;;15.10;99.90;;;;;;5075056;28;20203;-77
2021/09/19 03:27:38;;;;;;;165.80;157.77;;;15.10;99.90;;;;;;5068249;28;20212;-77
2021/09/19 03:30:07;;;;;;;156.05;148.50;;;15.00;99.90;;;;;;5068369;28;20201;-77
2021/09/19 03:32:34;;;;;;;140.70;133.88;;;15.00;99.90;;;;;;5068265;28;20272;-77
2021/09/19 03:35:01;;;;;;;167.75;159.35;;;15.10;99.90;;;;;;5079057;28;20213;-77
2021/09/19 03:37:28;;;;;;;153.85;146.18;;;15.10;99.90;;;;;;5068190;28;20229;-77
2021/09/19 03:39:55;;;;;;;138.88;132.40;;;15.10;99.90;;;;;;5068286;28;20210;-77
2021/09/19 03:42:23;;;;;;;153.95;146.40;;;15.10;99.90;;;;;;5068556;28;20204;-76
2021/09/19 03:45:28;;;;;;;142.13;135.20;;;15.10;99.90;;;;;;5076509;28;20226;-77
2021/09/19 03:47:57;;;;;;;168.02;159.98;;;15.10;99.90;;;;;;5073330;28;20209;-77
2021/09/19 03:50:24;;;;;;;152.98;145.68;;;15.10;99.90;;;;;;5069253;28;20288;-77
2021/09/19 03:52:51;;;;;;;168.48;159.80;;;15.10;99.90;;;;;;5068756;28;20200;-77
2021/09/19 03:55:18;;;;;;;136.93;130.30;;;15.10;99.90;;;;;;5068234;28;20203;-77
2021/09/19 03:57:46;;;;;;;154.68;147.32;;;15.00;99.90;;;;;;5068400;28;20249;-77
2021/09/19 04:00:14;;;;;;;133.70;127.22;;;15.00;99.90;;;;;;5068888;28;20228;-76
2021/09/19 04:02:41;;;;;;;166.02;157.82;;;14.90;99.90;;;;;;5071077;28;20204;-77
2021/09/19 04:05:09;;;;;;;170.02;161.23;;;14.90;99.90;;;;;;5067780;28;20207;-77
2021/09/19 04:07:36;;;;;;;172.50;164.20;;;14.90;99.90;;;;;;5067843;28;20305;-77
2021/09/19 04:10:05;;;;;;;162.88;155.05;;;14.90;99.90;;;;;;5073400;28;20245;-77
2021/09/19 04:12:32;;;;;;;167.07;158.75;;;14.90;99.90;;;;;;5072108;28;20204;-77
2021/09/19 04:15:00;;;;;;;176.70;167.95;;;14.80;99.90;;;;;;5078116;28;20653;-77
2021/09/19 04:17:27;;;;;;;146.60;139.65;;;14.80;99.90;;;;;;5076374;28;20252;-77
2021/09/19 04:19:54;;;;;;;151.38;144.15;;;14.70;99.90;;;;;;5073607;28;20207;-77
2021/09/19 04:22:23;;;;;;;155.20;147.63;;;14.70;99.90;;;;;;5067592;28;20200;-77
2021/09/19 04:24:50;;;;;;;151.52;144.25;;;14.80;99.90;;;;;;5067724;28;20241;-77
2021/09/19 04:27:17;;;;;;;146.75;139.65;;;14.80;99.90;;;;;;5071207;28;20203;-77
2021/09/19 04:29:44;;;;;;;145.77;138.25;;;14.70;99.90;;;;;;5074571;28;20235;-76
2021/09/19 04:32:13;;;;;;;179.60;170.55;;;14.70;99.90;;;;;;5070812;28;20207;-76
2021/09/19 04:34:40;;;;;;;151.18;143.70;;;14.60;99.90;;;;;;5074037;28;20199;-76
2021/09/19 04:37:07;;;;;;;174.45;165.80;;;14.60;99.90;;;;;;5073809;28;20230;-77
2021/09/19 04:39:34;;;;;;;159.25;151.68;;;14.50;99.90;;;;;;5068110;28;20205;-77
2021/09/19 04:42:01;;;;;;;161.30;153.38;;;14.60;99.90;;;;;;5071163;28;20200;-77
2021/09/19 04:44:28;;;;;;;179.75;170.80;;;14.50;99.90;;;;;;5069587;28;20195;-77
2021/09/19 04:46:55;;;;;;;157.70;150.07;;;14.50;99.90;;;;;;5071491;28;20212;-77
2021/09/19 04:49:23;;;;;;;155.98;148.48;;;14.60;99.90;;;;;;5072183;28;20249;-76
2021/09/19 04:51:50;;;;;;;176.75;168.02;;;14.60;99.90;;;;;;5066989;28;20235;-77
2021/09/19 04:54:17;;;;;;;175.25;166.70;;;14.70;99.90;;;;;;5049128;28;20283;-76
2021/09/19 04:56:44;;;;;;;175.02;166.32;;;14.80;99.90;;;;;;5074042;28;20390;-77
2021/09/19 04:59:11;;;;;;;157.98;150.18;;;14.80;99.90;;;;;;5073918;28;20659;-77
2021/09/19 05:01:38;;;;;;;169.80;161.02;;;14.80;99.90;;;;;;5067622;28;20209;-77
2021/09/19 05:04:05;;;;;;;196.82;186.75;;;14.70;99.90;;;;;;5069925;28;20245;-76
2021/09/19 05:06:33;;;;;;;198.98;189.15;;;14.70;99.90;;;;;;5071881;28;20220;-76
2021/09/19 05:09:00;;;;;;;187.18;177.98;;;14.70;99.90;;;;;;5069922;28;20228;-77
2021/09/19 05:11:27;;;;;;;193.70;183.75;;;14.80;99.90;;;;;;5072762;28;20259;-76
2021/09/19 05:13:54;;;;;;;206.70;196.23;;;14.80;99.90;;;;;;5066857;28;20212;-76
2021/09/19 05:16:21;;;;;;;164.70;156.57;;;14.70;99.90;;;;;;5074652;28;20231;-76
2021/09/19 05:18:48;;;;;;;168.18;160.00;;;14.70;99.90;;;;;;5066059;28;20201;-76
2021/09/19 05:21:15;;;;;;;51.15;48.50;;;14.70;99.90;;;;;;5065198;28;20456;-76
2021/09/19 05:23:43;;;;;;;126.03;120.18;;;14.70;99.90;;;;;;5066512;28;20277;-76
2021/09/19 05:26:10;;;;;;;140.85;134.23;;;14.70;99.90;;;;;;5066460;28;20208;-76
2021/09/19 05:28:37;;;;;;;147.25;140.40;;;14.80;99.90;;;;;;5070525;28;20222;-76
2021/09/19 05:31:04;;;;;;;186.88;177.45;;;14.80;99.90;;;;;;5067790;28;20579;-76
2021/09/19 05:33:31;;;;;;;212.18;201.10;;;14.70;99.90;;;;;;5065886;28;20233;-76
2021/09/19 05:35:58;;;;;;;188.90;179.55;;;14.80;99.90;;;;;;5071828;28;20212;-76
2021/09/19 05:38:25;;;;;;;207.60;197.00;;;14.80;99.90;;;;;;5070889;28;20230;-76
2021/09/19 05:40:53;;;;;;;208.20;197.38;;;14.80;99.90;;;;;;5066480;28;20261;-76
2021/09/19 05:43:20;;;;;;;196.07;186.02;;;14.80;99.90;;;;;;5072375;28;20200;-76
2021/09/19 05:45:47;;;;;;;181.10;172.25;;;14.80;99.90;;;;;;5066073;28;20228;-76
2021/09/19 05:48:14;;;;;;;176.05;167.38;;;14.80;99.90;;;;;;5065584;28;20213;-76
2021/09/19 05:50:42;;;;;;;204.90;194.32;;;14.80;99.90;;;;;;5066794;28;20236;-76
2021/09/19 05:53:09;;;;;;;205.65;195.20;;;14.70;99.90;;;;;;5066494;28;20207;-76
2021/09/19 05:55:36;;;;;;;167.93;159.77;;;14.70;99.90;;;;;;5073261;28;20212;-76
2021/09/19 05:58:04;;;;;;;171.48;162.88;;;14.70;99.90;;;;;;5065647;28;20202;-76
2021/09/19 06:00:31;;;;;;;154.48;147.07;;;14.60;99.90;;;;;;5068843;28;20223;-76
2021/09/19 06:02:58;;;;;;;186.68;177.32;;;14.70;99.90;;;;;;5066009;28;20284;-76
2021/09/19 06:05:25;;;;;;;208.23;197.43;;;14.70;99.90;;;;;;5072425;28;20199;-76
2021/09/19 06:07:52;;;;;;;175.68;166.93;;;14.80;99.90;;;;;;5066165;28;20203;-76
2021/09/19 06:10:19;;;;;;;193.07;183.07;;;14.80;99.90;;;;;;5066141;28;20234;-76
2021/09/19 06:12:46;;;;;;;200.05;189.50;;;14.80;99.90;;;;;;5065963;28;20207;-76
2021/09/19 06:15:14;;;;;;;248.93;235.75;;;14.80;99.90;;;;;;5066071;28;20253;-76
2021/09/19 06:17:41;;;;;;;171.00;162.77;;;14.70;99.90;;;;;;5066473;28;20241;-76
2021/09/19 06:20:09;;;;;;;157.75;149.90;;;14.70;99.90;;;;;;5050167;28;20277;-76
2021/09/19 06:22:36;;;;;;;240.57;226.80;;;14.80;99.90;;;;;;5073565;28;20217;-76
2021/09/19 06:25:03;;;;;;;221.75;210.18;;;14.80;99.90;;;;;;5071511;28;20913;-76
2021/09/19 06:27:30;;;;;;;276.42;261.02;;;14.90;99.90;;;;;;5074844;28;20195;-77
2021/09/19 06:29:57;;;;;;;306.35;288.63;;;14.90;99.90;;;;;;5078264;28;20251;-76
2021/09/19 06:32:25;;;;;;;304.75;287.48;;;15.00;99.90;;;;;;5081935;28;20201;-76
2021/09/19 06:34:52;;;;;;;227.13;215.25;;;15.00;99.90;;;;;;5072444;28;20197;-76
2021/09/19 06:37:19;;;;;;;245.35;231.77;;;15.10;99.90;;;;;;5069912;28;20229;-76
2021/09/19 06:39:47;;;;;;;258.35;244.43;;;15.10;99.90;;;;;;5070358;28;20233;-76
2021/09/19 06:42:13;;;;;;;305.10;287.75;;;15.10;99.90;;;;;;5070094;28;20725;-76
2021/09/19 06:44:40;;;;;;;275.83;260.33;;;15.10;99.90;;;;;;5069915;28;20263;-76
2021/09/19 06:47:07;;;;;;;152.90;145.63;;;15.10;99.90;;;;;;5076032;28;20229;-76
2021/09/19 06:49:36;;;;;;;160.52;152.57;;;15.20;99.90;;;;;;5073196;28;20246;-76
2021/09/19 06:52:03;;;;;;;141.80;135.05;;;15.30;99.90;;;;;;5069970;28;20207;-76
2021/09/19 06:54:30;;;;;;;180.35;171.55;;;15.20;99.90;;;;;;5069266;28;20206;-76
2021/09/19 06:56:57;;;;;;;148.25;141.02;;;15.20;99.90;;;;;;5069845;28;20207;-76
2021/09/19 06:59:24;;;;;;;170.00;161.75;;;15.30;99.90;;;;;;5069452;28;20211;-76
2021/09/19 07:01:51;;;;;;;170.13;161.85;;;15.30;99.90;;;;;;5069378;28;20303;-76
2021/09/19 07:04:18;;;;;;;163.98;155.52;;;15.40;99.90;;;;;;5076688;28;20697;-76
2021/09/19 07:06:46;;;;;;;149.45;142.40;;;15.40;99.90;;;;;;5080103;28;20260;-76
2021/09/19 07:09:13;;;;;;;168.88;160.65;;;15.50;99.90;;;;;;5075951;28;20227;-76
2021/09/19 07:11:40;;;;;;;141.02;134.45;;;15.60;99.90;;;;;;5069789;28;20522;-76
2021/09/19 07:14:07;;;;;;;131.57;125.43;;;15.80;99.90;;;;;;5069175;28;20204;-76
2021/09/19 07:16:34;;;;;;;140.10;133.45;;;15.90;99.90;;;;;;5073378;28;20215;-76
2021/09/19 07:19:01;;;;;;;158.68;151.05;;;16.00;99.90;;;;;;5069232;28;20224;-76
2021/09/19 07:22:10;;;;;;;155.52;147.70;;;16.00;99.90;;;;;;5075547;28;20198;-76
2021/09/19 07:24:38;;;;;;;161.52;153.68;;;16.00;99.90;;;;;;5046696;28;20234;-76
2021/09/19 07:27:06;;;;;;;162.65;154.73;;;16.20;99.90;;;;;;5052100;28;20203;-76
2021/09/19 07:29:33;;;;;;;147.10;140.05;;;16.30;99.90;;;;;;5052012;28;20569;-76
2021/09/19 07:32:02;;;;;;;131.98;125.82;;;16.30;99.90;;;;;;5047894;28;20235;-76
2021/09/19 07:34:29;;;;;;;135.98;127.90;;;16.50;99.90;;;;;;5049218;28;20226;-76
2021/09/19 07:36:57;;;;;;;111.82;106.57;;;16.70;99.90;;;;;;5048493;28;20291;-76
2021/09/19 07:39:24;;;;;;;147.15;140.18;;;16.90;99.90;;;;;;5048904;28;20208;-77
2021/09/19 07:41:54;;;;;;;123.28;117.43;;;16.90;99.90;;;;;;5053943;28;20687;-77
2021/09/19 07:44:21;;;;;;;119.47;113.75;;;17.00;99.90;;;;;;5049830;28;20291;-76
2021/09/19 07:46:49;;;;;;;131.70;125.55;;;17.20;99.90;;;;;;5054623;28;20263;-77
2021/09/19 07:49:17;;;;;;;99.25;94.70;;;17.50;99.90;;;;;;5059495;28;20201;-77
2021/09/19 07:51:44;;;;;;;127.30;121.38;;;17.70;99.90;;;;;;5050002;28;20239;-77
2021/09/19 07:54:12;;;;;;;115.53;110.10;;;17.90;99.90;;;;;;5048111;28;20204;-77
2021/09/19 07:56:39;;;;;;;90.55;86.20;;;18.20;99.90;;;;;;5048593;28;20208;-76
2021/09/19 07:59:07;;;;;;;86.63;82.40;;;18.40;99.90;;;;;;5047796;28;20322;-77
2021/09/19 08:01:34;;;;;;;101.60;96.68;;;18.50;99.90;;;;;;5054495;28;20581;-76
2021/09/19 08:04:01;;;;;;;113.03;107.68;;;18.40;99.90;;;;;;5052374;28;20232;-77
2021/09/19 08:06:28;;;;;;;116.55;111.00;;;18.30;99.90;;;;;;5050543;28;20203;-77
2021/09/19 08:08:54;;;;;;;115.55;110.00;;;18.40;99.90;;;;;;5054248;28;20247;-76
2021/09/19 08:11:21;;;;;;;106.05;101.15;;;18.50;99.90;;;;;;5048675;28;20288;-76
2021/09/19 08:13:48;;;;;;;99.03;94.30;;;18.40;99.90;;;;;;5048072;28;20211;-77
2021/09/19 08:16:17;;;;;;;91.18;86.63;;;18.50;99.90;;;;;;5052650;28;20199;-77
2021/09/19 08:18:44;;;;;;;106.55;101.50;;;18.70;99.90;;;;;;5050054;28;20209;-77
2021/09/19 08:21:11;;;;;;;72.75;69.25;;;18.80;99.90;;;;;;5063202;28;20209;-77
2021/09/19 08:23:38;;;;;;;110.78;105.47;;;18.70;99.90;;;;;;5051754;28;20219;-77
2021/09/19 08:26:05;;;;;;;77.45;73.78;;;18.70;99.90;;;;;;5047568;28;20254;-76
2021/09/19 08:28:32;;;;;;;75.75;72.18;;;18.70;99.90;;;;;;5047886;28;20244;-76
2021/09/19 08:30:59;;;;;;;92.40;87.85;;;18.90;99.90;;;;;;5052862;28;20252;-76
2021/09/19 08:33:27;;;;;;;77.68;74.05;;;19.20;99.90;;;;;;5047892;28;20232;-76
2021/09/19 08:35:56;;;;;;;99.22;94.47;;;19.40;99.90;;;;;;5057399;28;20203;-76
2021/09/19 08:38:22;;;;;;;75.88;72.28;;;19.70;99.90;;;;;;5051367;28;20702;-76
2021/09/19 08:40:51;;;;;;;75.03;71.38;;;19.80;99.90;;;;;;5047624;28;20205;-76
2021/09/19 08:43:18;;;;;;;66.15;62.80;;;20.10;99.90;;;;;;5051463;28;20201;-76
2021/09/19 08:45:47;;;;;;;87.18;83.00;;;20.60;99.90;;;;;;5053109;28;20206;-76
2021/09/19 08:48:16;;;;;;;45.08;42.75;;;21.10;99.90;;;;;;5047474;28;21119;-76
2021/09/19 08:50:45;;;;;;;41.20;39.08;;;21.50;99.90;;;;;;5054622;28;20622;-77
2021/09/19 08:53:12;;;;;;;97.63;92.95;;;21.90;99.90;;;;;;5053815;28;20206;-76
2021/09/19 08:55:39;;;;;;;113.03;107.68;;;22.00;99.90;;;;;;5053059;28;20220;-76
2021/09/19 08:58:06;;;;;;;30.38;28.95;;;22.00;99.90;;;;;;5051380;28;20209;-77
2021/09/19 09:00:40;;;;;;;78.65;74.90;;;22.20;99.90;;;;;;5047365;28;20206;-76
2021/09/19 09:03:11;;;;;;;89.47;85.22;;;22.40;99.90;;;;;;5050735;28;20237;-76
2021/09/19 09:05:39;;;;;;;25.33;24.08;;;22.50;99.90;;;;;;5052141;28;20272;-76
2021/09/19 09:08:09;;;;;;;22.83;21.30;;;22.70;99.90;;;;;;5052256;28;20226;-76
2021/09/19 09:10:39;;;;;;;16.63;15.75;;;22.50;99.90;;;;;;5048139;28;20275;-77
2021/09/19 09:13:08;;;;;;;16.77;15.85;;;22.50;99.90;;;;;;5050999;28;20235;-77
2021/09/19 09:15:38;;;;;;;14.25;13.60;;;22.50;99.90;;;;;;5046954;28;20488;-76
2021/09/19 09:18:06;;;;;;;17.20;16.35;;;22.50;99.90;;;;;;5047163;28;20252;-77
2021/09/19 09:20:49;;;;;;;16.67;15.73;;;22.70;99.90;;;;;;5046810;28;20335;-77
2021/09/19 09:23:39;;;;;;;14.20;13.52;;;22.70;99.90;;;;;;5052341;28;20204;-76
2021/09/19 09:26:22;;;;;;;16.00;15.20;;;22.50;99.90;;;;;;5042461;28;20208;-77
2021/09/19 09:28:52;;;;;;;28.25;26.90;;;22.00;99.90;;;;;;5046532;28;20261;-76
2021/09/19 09:31:22;;;;;;;16.17;15.38;;;21.80;99.90;;;;;;5049712;28;20261;-76
2021/09/19 09:33:58;;;;;;;20.13;18.45;;;21.80;99.90;;;;;;5046471;28;20204;-77
2021/09/19 09:36:33;;;;;;;27.45;26.10;;;21.70;99.90;;;;;;5046839;28;20229;-77
2021/09/19 09:39:02;;;;;;;22.63;21.50;;;21.70;99.90;;;;;;5046048;28;20216;-77
2021/09/19 09:41:39;;;;;;;22.88;21.67;;;21.70;99.90;;;;;;5046713;28;20201;-77
2021/09/19 09:44:24;;;;;;;17.38;16.58;;;21.80;99.90;;;;;;5046136;28;20204;-77
2021/09/19 09:46:52;;;;;;;24.58;23.33;;;21.60;99.90;;;;;;5052530;28;20202;-76
2021/09/19 09:49:23;;;;;;;26.02;24.67;;;21.50;99.90;;;;;;5045897;28;20198;-77
2021/09/19 09:51:50;;;;;;;34.55;32.85;;;21.50;99.90;;;;;;5050460;28;20266;-77
2021/09/19 09:54:18;;;;;;;23.08;21.83;;;21.50;99.90;;;;;;5051194;28;20270;-77
2021/09/19 09:56:47;;;;;;;36.53;34.72;;;21.50;99.90;;;;;;5050288;28;20206;-77
2021/09/19 09:59:17;;;;;;;26.60;25.33;;;21.50;99.90;;;;;;5046177;28;20208;-76
2021/09/19 10:08:16;;;;;;;27.15;25.85;;;21.30;99.90;;;;;;5088117;28;20338;-77
2021/09/19 10:10:44;;;;;;;36.70;34.95;;;21.20;99.90;;;;;;5084560;28;20248;-77
2021/09/19 10:13:13;;;;;;;36.42;34.58;;;21.20;99.90;;;;;;5084040;28;20212;-76
2021/09/19 10:15:40;;;;;;;38.40;36.40;;;21.20;99.90;;;;;;5083349;28;20683;-77
2021/09/19 10:18:09;;;;;;;28.67;27.23;;;21.10;99.90;;;;;;5083491;28;20621;-76
2021/09/19 10:20:41;;;;;;;42.00;39.88;;;21.00;99.90;;;;;;5089177;28;20211;-76
2021/09/19 10:23:13;;;;;;;40.58;38.45;;;20.90;99.90;;;;;;5092108;28;20244;-77
2021/09/19 10:25:47;;;;;;;33.65;31.92;;;21.00;99.90;;;;;;5083900;28;20216;-77
2021/09/19 10:28:37;;;;;;;28.63;26.83;;;21.00;99.90;;;;;;5084382;28;20198;-77
2021/09/19 10:31:34;;;;;;;28.88;27.20;;;21.10;99.90;;;;;;5085197;28;20203;-76
2021/09/19 10:34:04;;;;;;;38.78;36.92;;;21.00;99.90;;;;;;5077614;28;20229;-76
2021/09/19 10:36:34;;;;;;;28.17;26.75;;;21.00;99.90;;;;;;5084333;28;20209;-76
2021/09/19 10:39:31;;;;;;;41.65;39.33;;;21.10;99.90;;;;;;5090251;28;20205;-77
2021/09/19 10:42:30;;;;;;;26.20;24.70;;;21.30;99.90;;;;;;5030536;28;20211;-76
2021/09/19 10:45:17;;;;;;;39.70;37.70;;;21.40;99.90;;;;;;5021318;28;20210;-76
2021/09/19 10:47:49;;;;;;;27.70;26.20;;;21.40;99.90;;;;;;5021061;28;20204;-76
2021/09/19 10:50:22;;;;;;;38.05;36.15;;;21.40;99.90;;;;;;5026320;28;20226;-76
2021/09/19 10:52:51;;;;;;;31.05;29.30;;;21.30;99.90;;;;;;5022802;28;20220;-76
2021/09/19 10:55:27;;;;;;;45.38;43.10;;;21.20;99.90;;;;;;5022372;28;20198;-76
2021/09/19 10:57:59;;;;;;;35.08;33.25;;;21.20;99.90;;;;;;5024727;28;20209;-76
2021/09/19 11:00:27;;;;;;;49.17;46.85;;;21.20;99.90;;;;;;5022580;28;20267;-76
2021/09/19 11:03:02;;;;;;;38.83;36.72;;;21.20;99.90;;;;;;5022370;28;20252;-77
2021/09/19 11:05:32;;;;;;;82.53;78.57;;;21.30;99.90;;;;;;5024841;28;20202;-77
2021/09/19 11:08:41;;;;;;;102.18;97.22;;;21.40;99.90;;;;;;5020702;28;20211;-77
2021/09/19 11:11:22;;;;;;;113.78;108.03;;;21.30;99.90;;;;;;5021481;28;20203;-76
2021/09/19 11:13:55;;;;;;;93.53;88.97;;;21.20;99.90;;;;;;5020662;28;20226;-77
2021/09/19 11:16:29;;;;;;;129.60;123.13;;;21.00;99.90;;;;;;5007040;28;20202;-76
2021/09/19 11:18:58;;;;;;;54.97;52.28;;;21.00;99.90;;;;;;5068374;28;20201;-76
2021/09/19 11:21:35;;;;;;;37.30;35.20;;;21.00;99.90;;;;;;5068283;28;20204;-77
2021/09/19 11:24:05;;;;;;;40.00;37.95;;;21.00;99.90;;;;;;5077750;28;20290;-76
2021/09/19 11:26:34;;;;;;;57.78;54.85;;;21.00;99.90;;;;;;5074331;28;20205;-77
2021/09/19 11:29:05;;;;;;;51.55;48.90;;;21.00;99.90;;;;;;5068924;28;20275;-77
2021/09/19 11:31:33;;;;;;;38.42;36.28;;;20.90;99.90;;;;;;5069074;28;20258;-77
2021/09/19 11:34:01;;;;;;;36.55;34.65;;;20.80;99.90;;;;;;5068055;28;20205;-76
2021/09/19 11:36:29;;;;;;;51.78;49.17;;;20.70;99.90;;;;;;5068801;28;20202;-76
2021/09/19 11:38:56;;;;;;;40.78;38.70;;;20.70;99.90;;;;;;5068379;28;20201;-76
2021/09/19 11:41:25;;;;;;;38.75;36.40;;;20.70;99.90;;;;;;5068373;28;20198;-76
2021/09/19 11:43:54;;;;;;;34.38;32.53;;;20.80;99.90;;;;;;5073304;28;20228;-76
2021/09/19 11:46:25;;;;;;;46.53;44.17;;;20.90;99.90;;;;;;5068447;28;20238;-76
2021/09/19 11:48:53;;;;;;;35.35;33.50;;;20.80;99.90;;;;;;5069051;28;20624;-76
2021/09/19 11:51:21;;;;;;;39.25;37.25;;;20.60;99.90;;;;;;5072768;28;20208;-77
2021/09/19 11:53:50;;;;;;;41.80;39.58;;;20.60;99.90;;;;;;5073576;28;20236;-76
2021/09/19 11:56:17;;;;;;;51.17;48.63;;;20.50;99.90;;;;;;5077826;28;20201;-77
2021/09/19 11:58:47;;;;;;;38.58;36.63;;;20.50;99.90;;;;;;5073871;28;20204;-76
2021/09/19 12:01:14;;;;;;;47.42;44.92;;;20.60;99.90;;;;;;5069322;28;20199;-77
2021/09/19 12:03:42;;;;;;;55.25;51.80;;;20.50;99.90;;;;;;5068478;28;20249;-77
2021/09/19 12:06:11;;;;;;;63.80;60.53;;;20.60;99.90;;;;;;5074227;28;20201;-77
2021/09/19 12:08:43;;;;;;;47.15;44.80;;;20.60;99.90;;;;;;5068426;28;20201;-77
2021/09/19 12:11:10;;;;;;;45.97;43.15;;;20.50;99.90;;;;;;5073229;28;20247;-77
2021/09/19 12:13:40;;;;;;;44.63;42.28;;;20.50;99.90;;;;;;5072088;28;20203;-77
2021/09/19 12:16:10;;;;;;;62.45;59.10;;;20.50;99.90;;;;;;5068407;28;20310;-76
2021/09/19 12:18:39;;;;;;;51.10;48.42;;;20.50;99.90;;;;;;5067749;28;20239;-77
2021/09/19 12:21:09;;;;;;;54.20;51.40;;;20.60;99.90;;;;;;5074259;28;20201;-76
2021/09/19 12:23:42;;;;;;;53.35;50.50;;;20.60;99.90;;;;;;5049257;28;20221;-77
2021/09/19 12:26:13;;;;;;;51.13;48.50;;;20.50;99.90;;;;;;5065954;28;20209;-77
2021/09/19 12:28:43;;;;;;;59.38;56.22;;;20.50;99.90;;;;;;5072118;28;20729;-76